Time;durP1;ratioP1;P1;durP2;ratioP2;P2;SDS_P1;SDS_P2;PMS_P1;PMS_P2;Temp;Humidity;BMP_temperature;BMP_pressure;BME280_temperature;BME280_humidity;BME280_pressure;Samples;Min_cycle;Max_cycle;Signal;HPM_P1;HPM_P2
2021/08/22 00:01:18;;;;;;;4.63;4.23;;;17.50;98.30;;;;;;5093478;23;20490;-83
2021/08/22 00:03:21;;;;;;;6.50;4.60;;;17.50;98.30;;;;;;5093093;23;20991;-84
2021/08/22 00:05:24;;;;;;;5.00;4.50;;;17.50;98.30;;;;;;5101831;23;20455;-84
2021/08/22 00:07:27;;;;;;;7.50;4.63;;;17.50;98.30;;;;;;5093994;23;20457;-83
2021/08/22 00:09:30;;;;;;;5.23;4.50;;;17.50;98.30;;;;;;5097913;23;20450;-84
2021/08/22 00:11:33;;;;;;;5.03;4.30;;;17.50;98.30;;;;;;5101618;23;20422;-84
2021/08/22 00:13:38;;;;;;;5.07;4.00;;;17.40;98.30;;;;;;5101121;23;20461;-84
2021/08/22 00:15:40;;;;;;;4.73;4.33;;;17.50;98.30;;;;;;5101158;23;20517;-84
2021/08/22 00:17:44;;;;;;;5.43;4.93;;;17.70;98.30;;;;;;5100773;23;20421;-84
2021/08/22 00:19:47;;;;;;;5.83;4.20;;;17.50;98.30;;;;;;5093156;23;21312;-84
2021/08/22 00:21:49;;;;;;;6.37;4.70;;;17.40;98.30;;;;;;5101598;23;20430;-84
2021/08/22 00:23:52;;;;;;;4.77;4.27;;;17.50;98.30;;;;;;5100513;23;20487;-84
2021/08/22 00:25:56;;;;;;;5.97;4.57;;;17.40;98.30;;;;;;5102000;23;20804;-84
2021/08/22 00:27:59;;;;;;;5.07;4.20;;;17.40;98.30;;;;;;5101796;23;20951;-84
2021/08/22 00:30:04;;;;;;;4.40;4.00;;;17.40;98.30;;;;;;5094644;23;20457;-84
2021/08/22 00:32:08;;;;;;;4.87;3.70;;;17.40;98.30;;;;;;5102207;23;20513;-83
2021/08/22 00:34:11;;;;;;;4.60;4.03;;;17.30;98.30;;;;;;5102339;23;20458;-84
2021/08/22 00:36:14;;;;;;;4.40;4.00;;;17.40;98.30;;;;;;5102179;23;20434;-84
2021/08/22 00:38:17;;;;;;;4.47;4.07;;;17.40;98.30;;;;;;5102391;23;20427;-84
2021/08/22 00:40:20;;;;;;;6.83;4.10;;;17.30;98.30;;;;;;5101173;23;20795;-84
2021/08/22 00:42:24;;;;;;;4.50;4.10;;;17.30;98.30;;;;;;5100856;23;20426;-84
2021/08/22 00:44:27;;;;;;;4.73;3.90;;;17.40;98.30;;;;;;5100535;23;20514;-84
2021/08/22 00:46:33;;;;;;;4.27;3.87;;;17.30;98.30;;;;;;5100799;23;20502;-84
2021/08/22 00:48:36;;;;;;;4.43;3.83;;;17.30;98.30;;;;;;5101787;23;20446;-84
2021/08/22 00:50:40;;;;;;;5.00;4.10;;;17.40;98.30;;;;;;5103233;23;20430;-83
2021/08/22 00:52:43;;;;;;;4.47;4.07;;;17.40;98.30;;;;;;5102900;23;20494;-83
2021/08/22 00:54:46;;;;;;;5.10;3.43;;;17.40;98.30;;;;;;5102660;23;20485;-84
2021/08/22 00:56:49;;;;;;;4.13;3.60;;;17.30;98.30;;;;;;5101510;23;20457;-84
2021/08/22 00:58:52;;;;;;;6.70;3.53;;;17.40;98.30;;;;;;5102164;23;20431;-83
2021/08/22 01:00:56;;;;;;;5.00;3.90;;;17.30;98.30;;;;;;5103329;23;20419;-83
2021/08/22 01:03:07;;;;;;;5.03;4.00;;;17.30;98.30;;;;;;5094695;23;20804;-82
2021/08/22 01:05:19;;;;;;;4.20;3.80;;;17.40;98.30;;;;;;5102994;23;20429;-84
2021/08/22 01:07:28;;;;;;;3.80;3.43;;;17.40;98.30;;;;;;5102982;23;20486;-84
2021/08/22 01:09:36;;;;;;;4.03;3.63;;;17.40;98.30;;;;;;5104385;23;20995;-84
2021/08/22 01:11:41;;;;;;;5.33;4.17;;;17.30;98.30;;;;;;5104396;23;20436;-83
2021/08/22 01:13:53;;;;;;;4.50;4.10;;;17.30;98.30;;;;;;5100171;23;20487;-84
2021/08/22 01:15:59;;;;;;;4.40;3.90;;;17.20;98.30;;;;;;5095323;23;20415;-84
2021/08/22 01:18:06;;;;;;;4.53;4.13;;;17.20;98.30;;;;;;5103838;23;20419;-84
2021/08/22 01:20:17;;;;;;;4.43;3.90;;;17.30;98.30;;;;;;5103756;23;21021;-83
2021/08/22 01:22:22;;;;;;;4.83;4.40;;;17.20;98.30;;;;;;5101248;23;20437;-84
2021/08/22 01:24:27;;;;;;;3.70;3.40;;;17.20;98.30;;;;;;5100886;23;20415;-84
2021/08/22 01:26:32;;;;;;;3.90;3.30;;;17.10;98.30;;;;;;5092943;23;20434;-84
2021/08/22 01:28:36;;;;;;;5.00;3.87;;;17.20;98.30;;;;;;5100517;23;20443;-84
2021/08/22 01:30:44;;;;;;;5.47;3.93;;;17.20;98.30;;;;;;5093308;23;20431;-84
2021/08/22 01:32:51;;;;;;;5.13;4.07;;;17.20;98.30;;;;;;5102093;23;20422;-83
2021/08/22 01:34:55;;;;;;;3.67;3.37;;;17.30;98.30;;;;;;5101093;23;20454;-83
2021/08/22 01:37:00;;;;;;;4.10;3.70;;;17.30;98.30;;;;;;5100319;23;20426;-83
2021/08/22 01:39:03;;;;;;;6.90;3.80;;;17.20;98.30;;;;;;5100798;23;20782;-83
2021/08/22 01:41:08;;;;;;;6.03;3.70;;;17.20;98.30;;;;;;5100971;23;20415;-84
2021/08/22 01:43:12;;;;;;;4.40;3.53;;;17.10;98.30;;;;;;5092611;23;21163;-83
2021/08/22 01:45:18;;;;;;;3.97;3.30;;;17.10;98.30;;;;;;5100250;23;20427;-84
2021/08/22 01:47:22;;;;;;;4.17;3.77;;;17.20;98.30;;;;;;5101406;23;20403;-84
2021/08/22 01:49:27;;;;;;;4.33;3.93;;;17.20;98.30;;;;;;5100515;23;20457;-84
2021/08/22 01:51:32;;;;;;;4.13;3.73;;;17.20;98.30;;;;;;5100335;23;20430;-84
2021/08/22 01:53:36;;;;;;;3.87;3.50;;;17.10;98.30;;;;;;5102345;23;20427;-84
2021/08/22 01:55:39;;;;;;;6.40;3.80;;;17.20;98.30;;;;;;5095183;23;20811;-83
2021/08/22 01:57:44;;;;;;;3.90;3.50;;;17.20;98.30;;;;;;5101570;23;20423;-84
2021/08/22 01:59:47;;;;;;;3.73;3.33;;;17.20;98.30;;;;;;5101212;23;20550;-84
2021/08/22 02:01:50;;;;;;;4.97;3.60;;;17.20;98.30;;;;;;5101072;23;20430;-83
2021/08/22 02:03:59;;;;;;;5.40;3.50;;;17.10;98.30;;;;;;5101691;23;20419;-84
2021/08/22 02:06:09;;;;;;;5.73;3.53;;;17.10;98.30;;;;;;5103448;23;20994;-83
2021/08/22 02:08:18;;;;;;;4.17;3.47;;;17.10;98.30;;;;;;5103040;23;20461;-83
2021/08/22 02:10:30;;;;;;;3.93;3.50;;;17.20;98.30;;;;;;5101743;23;20457;-84
2021/08/22 02:12:33;;;;;;;3.70;3.40;;;17.20;98.30;;;;;;5093767;23;20466;-83
2021/08/22 02:14:40;;;;;;;4.10;3.70;;;17.20;98.30;;;;;;5102863;23;20426;-84
2021/08/22 02:16:48;;;;;;;4.00;3.60;;;17.20;98.30;;;;;;5104878;23;20740;-84
2021/08/22 02:18:52;;;;;;;4.53;4.13;;;17.20;98.30;;;;;;5104002;23;20410;-83
2021/08/22 02:20:56;;;;;;;4.20;3.63;;;17.20;98.30;;;;;;5096267;23;20438;-83
2021/08/22 02:23:02;;;;;;;4.63;3.93;;;17.20;98.30;;;;;;5103399;23;20510;-84
2021/08/22 02:25:06;;;;;;;5.53;3.47;;;17.20;98.30;;;;;;5103435;23;20411;-83
2021/08/22 02:27:09;;;;;;;4.70;3.57;;;17.30;98.30;;;;;;5103415;23;20431;-84
2021/08/22 02:29:12;;;;;;;4.80;4.17;;;17.20;98.30;;;;;;5103036;23;20454;-83
2021/08/22 02:31:15;;;;;;;4.10;3.70;;;17.10;98.30;;;;;;5103538;23;20819;-84
2021/08/22 02:33:18;;;;;;;4.00;3.60;;;17.10;98.30;;;;;;5095616;23;20435;-84
2021/08/22 02:35:21;;;;;;;4.20;3.77;;;17.10;98.30;;;;;;5103525;23;20426;-84
2021/08/22 02:37:24;;;;;;;3.60;3.10;;;17.10;98.30;;;;;;5103875;23;20819;-83
2021/08/22 02:39:29;;;;;;;4.83;3.80;;;17.10;98.30;;;;;;5103792;23;20446;-83
2021/08/22 02:41:32;;;;;;;5.93;3.80;;;17.20;98.30;;;;;;5095174;23;20433;-84
2021/08/22 02:43:34;;;;;;;4.50;3.60;;;17.20;98.30;;;;;;5101964;23;20426;-84
2021/08/22 02:45:37;;;;;;;4.10;3.43;;;17.10;98.30;;;;;;5102698;23;20434;-84
2021/08/22 02:47:40;;;;;;;3.97;3.57;;;17.10;98.30;;;;;;5103074;23;20426;-84
2021/08/22 02:49:44;;;;;;;6.60;3.50;;;17.00;98.30;;;;;;5102824;23;20451;-83
2021/08/22 02:51:47;;;;;;;4.07;3.53;;;17.00;98.30;;;;;;5094923;23;20434;-84
2021/08/22 02:53:50;;;;;;;3.90;3.50;;;16.90;98.30;;;;;;5102788;23;20514;-84
2021/08/22 02:55:54;;;;;;;4.60;3.60;;;16.90;98.30;;;;;;5102644;23;20445;-84
2021/08/22 02:57:57;;;;;;;4.17;3.77;;;16.80;98.30;;;;;;5101968;23;20423;-84
2021/08/22 03:00:00;;;;;;;4.10;3.70;;;16.80;98.30;;;;;;5101817;23;20443;-84
2021/08/22 03:02:04;;;;;;;4.80;3.43;;;16.80;98.30;;;;;;5102428;23;20458;-84
2021/08/22 03:04:07;;;;;;;4.07;3.30;;;16.80;98.30;;;;;;5101353;23;20419;-84
2021/08/22 03:06:10;;;;;;;3.90;3.50;;;17.00;98.30;;;;;;5094263;23;20430;-84
2021/08/22 03:08:13;;;;;;;3.90;3.50;;;17.00;98.30;;;;;;5102382;23;20437;-84
2021/08/22 03:10:16;;;;;;;5.17;3.40;;;16.90;98.30;;;;;;5102432;23;20450;-83
2021/08/22 03:12:21;;;;;;;5.30;3.33;;;16.90;98.30;;;;;;5094614;23;20435;-84
2021/08/22 03:14:23;;;;;;;4.77;3.57;;;17.00;98.30;;;;;;5100902;23;20442;-83
2021/08/22 03:16:27;;;;;;;4.53;3.43;;;17.10;98.30;;;;;;5101107;23;20433;-83
2021/08/22 03:18:30;;;;;;;4.87;3.70;;;17.00;98.30;;;;;;5101587;23;20426;-84
2021/08/22 03:20:33;;;;;;;4.20;3.70;;;17.10;98.30;;;;;;5101139;23;20484;-84
2021/08/22 03:22:36;;;;;;;3.97;3.57;;;17.00;98.30;;;;;;5101430;23;20510;-84
2021/08/22 03:24:39;;;;;;;4.13;3.60;;;17.00;98.30;;;;;;5101316;23;20437;-83
2021/08/22 03:26:41;;;;;;;3.57;3.27;;;17.00;98.30;;;;;;5101642;23;20431;-84
2021/08/22 03:28:46;;;;;;;4.00;3.60;;;17.00;98.30;;;;;;5100113;23;20916;-84
2021/08/22 03:30:51;;;;;;;4.47;3.70;;;17.00;98.30;;;;;;5101382;23;20423;-84
2021/08/22 03:32:55;;;;;;;5.60;3.37;;;17.00;98.30;;;;;;5093442;23;20422;-83
2021/08/22 03:34:58;;;;;;;4.50;3.90;;;16.80;98.30;;;;;;5101587;23;20461;-84
2021/08/22 03:37:01;;;;;;;4.10;3.70;;;16.80;98.30;;;;;;5101267;23;20429;-84
2021/08/22 03:39:04;;;;;;;6.23;4.67;;;16.80;98.30;;;;;;5101787;23;20513;-83
2021/08/22 03:41:07;;;;;;;5.27;3.83;;;16.80;98.30;;;;;;5093559;23;20517;-83
2021/08/22 03:43:10;;;;;;;6.83;3.63;;;16.80;98.30;;;;;;5101660;23;20494;-84
2021/08/22 03:45:15;;;;;;;4.97;3.03;;;16.90;98.30;;;;;;5093540;23;20773;-84
2021/08/22 03:47:18;;;;;;;3.63;3.30;;;16.80;98.30;;;;;;5102147;23;20506;-84
2021/08/22 03:49:21;;;;;;;3.70;3.20;;;16.80;98.30;;;;;;5094030;23;20451;-84
2021/08/22 03:51:24;;;;;;;3.93;3.53;;;16.80;98.30;;;;;;5101768;23;20423;-84
2021/08/22 03:53:27;;;;;;;6.33;3.40;;;16.70;98.30;;;;;;5101375;23;21195;-84
2021/08/22 03:55:30;;;;;;;4.40;4.00;;;16.80;98.30;;;;;;5093710;23;21161;-84
2021/08/22 03:57:33;;;;;;;3.50;3.20;;;16.80;98.30;;;;;;5093620;23;20435;-84
2021/08/22 03:59:36;;;;;;;3.83;3.30;;;16.80;98.30;;;;;;5101772;23;20470;-84
2021/08/22 04:01:40;;;;;;;4.50;4.07;;;16.80;98.30;;;;;;5091869;23;20462;-81
2021/08/22 04:03:43;;;;;;;4.90;3.40;;;16.90;98.30;;;;;;5099829;23;20443;-84
2021/08/22 04:05:47;;;;;;;3.70;3.30;;;16.90;98.30;;;;;;5099122;23;20800;-84
2021/08/22 04:07:52;;;;;;;6.27;3.20;;;16.80;98.30;;;;;;5099658;23;20462;-84
2021/08/22 04:09:56;;;;;;;4.53;3.13;;;16.90;98.30;;;;;;5091539;23;20457;-84
2021/08/22 04:11:59;;;;;;;3.60;3.30;;;16.80;98.30;;;;;;5091853;23;20522;-83
2021/08/22 04:14:02;;;;;;;6.80;3.70;;;16.80;98.30;;;;;;5091383;23;20510;-83
2021/08/22 04:16:05;;;;;;;3.80;3.23;;;16.80;98.30;;;;;;5091741;23;20503;-84
2021/08/22 04:18:12;;;;;;;3.80;3.13;;;16.80;98.30;;;;;;5091729;23;20542;-83
2021/08/22 04:20:15;;;;;;;4.07;3.40;;;16.90;98.30;;;;;;5099686;23;20443;-83
2021/08/22 04:22:18;;;;;;;4.10;3.70;;;17.00;98.30;;;;;;5099895;23;20430;-82
2021/08/22 04:24:21;;;;;;;4.80;3.77;;;16.90;98.30;;;;;;5091244;23;20427;-83
2021/08/22 04:26:24;;;;;;;4.00;3.60;;;16.80;98.30;;;;;;5092014;23;20431;-84
2021/08/22 04:28:27;;;;;;;11.60;3.87;;;16.80;98.30;;;;;;5099895;23;20419;-84
2021/08/22 04:30:30;;;;;;;3.70;3.30;;;16.80;98.30;;;;;;5099174;23;20498;-83
2021/08/22 04:32:33;;;;;;;4.23;3.83;;;16.80;98.30;;;;;;5091524;23;20445;-84
2021/08/22 04:34:37;;;;;;;3.97;3.40;;;16.80;98.30;;;;;;5099098;23;20929;-84
2021/08/22 04:36:40;;;;;;;5.23;3.13;;;16.70;98.30;;;;;;5091431;23;20521;-82
2021/08/22 04:38:43;;;;;;;3.90;3.50;;;16.70;98.30;;;;;;5099592;23;20427;-83
2021/08/22 04:40:46;;;;;;;4.67;3.17;;;16.70;98.30;;;;;;5099519;23;20419;-84
2021/08/22 04:42:49;;;;;;;4.03;3.10;;;16.70;98.30;;;;;;5100063;23;20506;-83
2021/08/22 04:44:52;;;;;;;3.60;3.30;;;16.70;98.30;;;;;;5091241;23;20430;-84
2021/08/22 04:46:55;;;;;;;5.53;3.33;;;16.70;98.30;;;;;;5100016;23;20419;-84
2021/08/22 04:48:58;;;;;;;4.57;3.30;;;16.70;98.30;;;;;;5091737;23;20455;-84
2021/08/22 04:51:03;;;;;;;3.40;3.10;;;16.80;98.30;;;;;;5091881;23;20447;-83
2021/08/22 04:53:06;;;;;;;3.83;3.43;;;16.80;98.30;;;;;;5099972;23;20442;-83
2021/08/22 04:55:09;;;;;;;3.30;3.00;;;16.70;98.30;;;;;;5099708;23;20752;-85
2021/08/22 04:57:12;;;;;;;3.70;3.40;;;16.80;98.30;;;;;;5091840;23;21063;-84
2021/08/22 04:59:15;;;;;;;3.40;3.10;;;16.80;98.30;;;;;;5099469;23;20439;-84
2021/08/22 05:01:18;;;;;;;5.07;3.67;;;16.80;98.30;;;;;;5099761;23;20429;-84
2021/08/22 05:03:21;;;;;;;4.13;3.50;;;16.90;98.30;;;;;;5099054;23;20530;-84
2021/08/22 05:05:24;;;;;;;4.57;3.43;;;16.90;98.30;;;;;;5098995;23;20773;-84
2021/08/22 05:07:29;;;;;;;5.20;3.27;;;17.00;98.30;;;;;;5099100;23;20426;-84
2021/08/22 05:09:32;;;;;;;3.50;3.20;;;16.90;98.30;;;;;;5099409;23;20480;-84
2021/08/22 05:11:35;;;;;;;3.33;3.03;;;16.90;98.30;;;;;;5099141;23;20774;-83
2021/08/22 05:13:38;;;;;;;3.30;3.00;;;16.90;98.30;;;;;;5090644;23;20473;-84
2021/08/22 05:15:42;;;;;;;3.37;3.07;;;16.90;98.30;;;;;;5099463;23;20415;-84
2021/08/22 05:17:44;;;;;;;3.87;2.90;;;16.80;98.30;;;;;;5091477;23;20426;-85
2021/08/22 05:19:47;;;;;;;3.60;3.23;;;16.90;98.30;;;;;;5091572;23;21069;-84
2021/08/22 05:21:50;;;;;;;3.20;2.90;;;16.90;98.30;;;;;;5091394;23;20435;-84
2021/08/22 05:23:55;;;;;;;3.20;2.90;;;16.90;98.30;;;;;;5090972;23;20439;-84
2021/08/22 05:25:58;;;;;;;3.20;2.90;;;16.90;98.30;;;;;;5091254;23;20995;-84
2021/08/22 05:28:00;;;;;;;5.13;3.27;;;16.80;98.30;;;;;;5100679;23;20938;-84
2021/08/22 05:30:04;;;;;;;5.17;3.73;;;16.80;98.30;;;;;;5092962;23;20458;-84
2021/08/22 05:32:07;;;;;;;4.30;3.30;;;16.80;98.30;;;;;;5092987;23;20431;-84
2021/08/22 05:34:10;;;;;;;5.33;3.57;;;16.90;98.30;;;;;;5101074;23;20745;-84
2021/08/22 05:36:18;;;;;;;3.80;3.20;;;16.90;98.30;;;;;;5093210;23;20551;-84
2021/08/22 05:38:21;;;;;;;6.27;3.20;;;16.90;98.30;;;;;;5092923;23;20827;-83
2021/08/22 05:40:25;;;;;;;3.40;3.10;;;16.90;98.30;;;;;;5101147;23;20439;-84
2021/08/22 05:42:28;;;;;;;3.43;3.13;;;17.00;98.30;;;;;;5092927;23;20426;-83
2021/08/22 05:44:31;;;;;;;4.50;3.10;;;16.90;98.30;;;;;;5100665;23;20478;-85
2021/08/22 05:46:34;;;;;;;5.60;4.07;;;16.90;98.30;;;;;;5101387;23;20429;-85
2021/08/22 05:48:37;;;;;;;3.77;3.47;;;16.90;98.30;;;;;;5100917;23;20419;-84
2021/08/22 05:50:40;;;;;;;5.20;3.30;;;17.10;98.30;;;;;;5101240;23;20433;-85
2021/08/22 05:52:43;;;;;;;5.67;3.30;;;17.10;98.30;;;;;;5101218;23;20418;-84
2021/08/22 05:54:46;;;;;;;3.00;2.57;;;17.10;98.30;;;;;;5092671;23;20827;-84
2021/08/22 05:56:50;;;;;;;3.20;2.90;;;17.10;98.30;;;;;;5101407;23;20421;-82
2021/08/22 05:58:53;;;;;;;3.30;3.00;;;17.00;98.30;;;;;;5092776;23;20437;-83
2021/08/22 06:00:56;;;;;;;3.67;3.10;;;17.00;98.30;;;;;;5092120;23;20515;-84
2021/08/22 06:02:59;;;;;;;3.70;3.30;;;16.90;98.30;;;;;;5101039;23;21026;-84
2021/08/22 06:05:03;;;;;;;4.13;3.13;;;16.90;98.30;;;;;;5092264;23;20439;-84
2021/08/22 06:07:06;;;;;;;3.53;3.00;;;16.90;98.30;;;;;;5092688;23;20730;-84
2021/08/22 06:09:09;;;;;;;5.00;3.10;;;17.00;98.30;;;;;;5092225;23;20601;-84
2021/08/22 06:11:12;;;;;;;3.57;2.70;;;17.00;98.30;;;;;;5101060;23;20450;-84
2021/08/22 06:13:17;;;;;;;3.40;3.10;;;17.00;98.30;;;;;;5100326;23;20433;-84
2021/08/22 06:15:20;;;;;;;3.10;2.80;;;17.00;98.30;;;;;;5100554;23;20430;-85
2021/08/22 06:17:23;;;;;;;3.93;3.07;;;17.10;98.30;;;;;;5101081;23;20498;-84
2021/08/22 06:19:26;;;;;;;3.30;3.00;;;17.10;98.30;;;;;;5092478;23;20453;-85
2021/08/22 06:21:29;;;;;;;3.40;3.07;;;17.10;98.30;;;;;;5092877;23;20795;-85
2021/08/22 06:23:32;;;;;;;4.70;4.00;;;16.90;98.30;;;;;;5092205;23;20804;-85
2021/08/22 06:25:35;;;;;;;3.50;3.20;;;16.90;98.30;;;;;;5092829;23;20518;-86
2021/08/22 06:27:40;;;;;;;3.60;3.00;;;16.90;98.30;;;;;;5100526;23;20419;-85
2021/08/22 06:29:46;;;;;;;3.77;2.90;;;16.90;98.30;;;;;;5092700;23;20487;-84
2021/08/22 06:31:50;;;;;;;3.40;3.10;;;16.80;98.30;;;;;;5092417;23;20955;-85
2021/08/22 06:33:53;;;;;;;6.53;2.97;;;16.90;98.30;;;;;;5091862;23;20482;-85
2021/08/22 06:36:00;;;;;;;3.00;2.73;;;16.90;98.30;;;;;;5100786;23;20501;-85
2021/08/22 06:38:06;;;;;;;3.20;2.90;;;16.90;98.30;;;;;;5100765;23;20426;-85
2021/08/22 06:40:11;;;;;;;3.20;2.90;;;16.90;98.30;;;;;;5101131;23;20439;-85
2021/08/22 06:42:14;;;;;;;4.03;3.00;;;16.90;98.30;;;;;;5092726;23;20433;-85
2021/08/22 06:44:17;;;;;;;3.50;3.20;;;17.10;98.30;;;;;;5092474;23;20462;-85
2021/08/22 06:46:21;;;;;;;5.90;3.00;;;17.10;98.30;;;;;;5092709;23;20441;-86
2021/08/22 06:48:25;;;;;;;3.17;2.87;;;17.10;98.30;;;;;;5100446;23;20423;-86
2021/08/22 06:50:28;;;;;;;5.10;3.23;;;17.10;98.30;;;;;;5100541;23;20453;-85
2021/08/22 06:52:31;;;;;;;3.10;2.80;;;17.20;98.30;;;;;;5092407;23;20480;-86
2021/08/22 06:54:34;;;;;;;4.10;2.90;;;17.10;98.30;;;;;;5100029;23;21033;-84
2021/08/22 06:56:37;;;;;;;3.07;2.80;;;17.10;98.30;;;;;;5092554;23;20515;-85
2021/08/22 06:58:40;;;;;;;3.43;3.10;;;17.00;98.30;;;;;;5092293;23;20437;-86
2021/08/22 07:00:43;;;;;;;3.30;2.90;;;17.10;98.30;;;;;;5100103;23;20506;-86
2021/08/22 07:02:47;;;;;;;3.17;2.83;;;17.10;98.30;;;;;;5100418;23;20419;-86
2021/08/22 07:04:51;;;;;;;3.03;2.80;;;17.00;98.30;;;;;;5092313;23;20434;-84
2021/08/22 07:06:53;;;;;;;3.73;3.33;;;17.10;98.30;;;;;;5092502;23;20967;-85
2021/08/22 07:08:57;;;;;;;3.23;2.90;;;17.10;98.30;;;;;;5092064;23;20451;-85
2021/08/22 07:10:59;;;;;;;4.67;3.37;;;17.00;98.30;;;;;;5100200;23;20438;-85
2021/08/22 07:13:04;;;;;;;3.77;3.00;;;17.10;98.30;;;;;;5092451;23;20446;-85
2021/08/22 07:15:07;;;;;;;5.13;3.57;;;17.00;98.30;;;;;;5101079;23;20938;-85
2021/08/22 07:17:13;;;;;;;3.57;3.27;;;17.00;98.30;;;;;;5094812;23;20437;-85
2021/08/22 07:19:17;;;;;;;9.07;3.10;;;17.00;98.30;;;;;;5102611;23;20522;-84
2021/08/22 07:21:20;;;;;;;3.53;2.90;;;17.00;98.30;;;;;;5095377;23;20435;-84
2021/08/22 07:23:23;;;;;;;3.27;2.80;;;16.80;98.30;;;;;;5097945;23;20441;-83
2021/08/22 07:25:26;;;;;;;3.40;3.10;;;16.80;98.30;;;;;;5112670;23;20427;-83
2021/08/22 07:27:29;;;;;;;4.20;3.10;;;16.90;98.30;;;;;;5112056;23;20411;-84
2021/08/22 07:29:32;;;;;;;10.03;3.40;;;16.90;98.30;;;;;;5111942;23;20513;-84
2021/08/22 07:31:35;;;;;;;3.70;3.30;;;16.90;98.30;;;;;;5119983;23;20407;-83
2021/08/22 07:33:38;;;;;;;3.70;3.23;;;16.90;98.30;;;;;;5111000;23;20495;-84
2021/08/22 07:35:43;;;;;;;7.50;5.23;;;16.90;98.30;;;;;;5118826;23;20430;-82
2021/08/22 07:37:46;;;;;;;5.13;3.27;;;17.00;98.30;;;;;;5116607;23;20426;-84
2021/08/22 07:39:49;;;;;;;3.30;3.00;;;17.10;98.30;;;;;;5093792;23;20788;-84
2021/08/22 07:41:52;;;;;;;3.67;3.37;;;17.20;98.30;;;;;;5101941;23;20483;-83
2021/08/22 07:43:55;;;;;;;3.00;2.70;;;17.10;98.30;;;;;;5100964;23;20443;-85
2021/08/22 07:45:58;;;;;;;3.40;3.10;;;17.10;98.30;;;;;;5100895;23;21145;-84
2021/08/22 07:48:01;;;;;;;5.50;2.97;;;17.00;98.30;;;;;;5092952;23;20462;-85
2021/08/22 07:50:05;;;;;;;4.13;3.37;;;17.00;98.30;;;;;;5100923;23;20768;-85
2021/08/22 07:52:09;;;;;;;4.60;3.20;;;17.00;98.30;;;;;;5092278;23;20478;-85
2021/08/22 07:54:12;;;;;;;4.73;3.20;;;17.10;98.30;;;;;;5092452;23;20817;-86
2021/08/22 07:56:15;;;;;;;3.27;2.80;;;17.20;98.30;;;;;;5092908;23;20445;-84
2021/08/22 07:58:18;;;;;;;3.40;3.10;;;17.20;98.30;;;;;;5100936;23;20905;-85
2021/08/22 08:00:21;;;;;;;3.83;3.47;;;17.10;98.30;;;;;;5100769;23;20526;-85
2021/08/22 08:02:24;;;;;;;5.00;3.20;;;17.20;98.30;;;;;;5100595;23;20480;-86
2021/08/22 08:04:28;;;;;;;3.50;3.10;;;17.10;98.30;;;;;;5099926;23;20426;-84
2021/08/22 08:06:31;;;;;;;4.67;3.40;;;17.20;98.30;;;;;;5100224;23;20427;-86
2021/08/22 08:08:36;;;;;;;4.70;3.23;;;17.30;98.30;;;;;;5100265;23;20435;-84
2021/08/22 08:10:39;;;;;;;4.30;3.67;;;17.40;98.30;;;;;;5100277;23;21247;-85
2021/08/22 08:12:42;;;;;;;3.93;3.53;;;17.30;98.30;;;;;;5093403;23;20501;-84
2021/08/22 08:14:45;;;;;;;4.60;3.40;;;17.40;98.30;;;;;;5092858;23;20823;-84
2021/08/22 08:16:48;;;;;;;3.23;2.93;;;17.50;98.30;;;;;;5092524;23;20458;-85
2021/08/22 08:18:51;;;;;;;7.27;3.07;;;17.60;98.30;;;;;;5092353;23;20756;-83
2021/08/22 08:20:54;;;;;;;3.30;3.00;;;17.60;98.30;;;;;;5092427;23;20436;-84
2021/08/22 08:22:57;;;;;;;4.07;3.10;;;17.60;98.30;;;;;;5091663;23;20427;-84
2021/08/22 08:25:01;;;;;;;3.50;3.20;;;17.70;98.30;;;;;;5091866;23;20435;-85
2021/08/22 08:27:05;;;;;;;4.57;3.10;;;17.70;98.30;;;;;;5100437;23;20446;-84
2021/08/22 08:29:08;;;;;;;4.90;3.33;;;17.90;98.30;;;;;;5092048;23;20498;-85
2021/08/22 08:31:13;;;;;;;4.33;3.03;;;17.90;98.30;;;;;;5100261;23;20414;-84
2021/08/22 08:33:16;;;;;;;6.27;3.73;;;18.00;98.30;;;;;;5091915;23;20447;-84
2021/08/22 08:35:19;;;;;;;3.47;3.17;;;17.90;98.30;;;;;;5091915;23;20430;-84
2021/08/22 08:37:22;;;;;;;5.67;3.00;;;17.80;98.30;;;;;;5100260;23;20980;-84
2021/08/22 08:39:25;;;;;;;3.30;3.00;;;17.70;98.30;;;;;;5091752;23;20482;-84
2021/08/22 08:41:29;;;;;;;4.60;3.37;;;17.70;98.30;;;;;;5092260;23;20734;-84
2021/08/22 08:43:32;;;;;;;6.97;3.10;;;17.80;98.30;;;;;;5091475;23;20461;-86
2021/08/22 08:45:45;;;;;;;3.87;2.70;;;17.90;98.30;;;;;;5100222;23;20897;-84
2021/08/22 08:48:05;;;;;;;3.50;3.20;;;17.80;98.30;;;;;;5090940;23;20415;-85
2021/08/22 08:50:14;;;;;;;3.57;3.27;;;17.80;98.30;;;;;;5090778;23;20535;-84
2021/08/22 08:54:51;;;;;;;3.60;3.20;;;17.90;98.30;;;;;;5098960;23;20435;-85
2021/08/22 08:56:56;;;;;;;4.10;3.50;;;17.90;98.30;;;;;;5091148;23;20517;-83
2021/08/22 08:58:59;;;;;;;3.40;3.10;;;17.90;98.30;;;;;;5091194;23;20450;-84
2021/08/22 09:01:03;;;;;;;3.20;2.90;;;17.90;98.30;;;;;;5091266;23;20840;-83
2021/08/22 09:03:06;;;;;;;4.50;3.23;;;17.90;98.30;;;;;;5091048;23;20427;-85
2021/08/22 09:05:25;;;;;;;4.73;3.07;;;17.90;98.30;;;;;;5090284;23;21453;-84
2021/08/22 09:08:02;;;;;;;3.90;3.50;;;17.90;98.30;;;;;;5087698;23;20437;-85
2021/08/22 09:10:42;;;;;;;3.90;3.10;;;18.00;98.30;;;;;;5091052;23;20926;-84
2021/08/22 09:13:34;;;;;;;3.30;3.00;;;18.00;98.30;;;;;;5091276;23;20554;-84
2021/08/22 09:16:37;;;;;;;7.03;3.60;;;18.10;98.30;;;;;;5098747;23;20419;-85
2021/08/22 09:19:17;;;;;;;4.00;3.23;;;18.20;98.30;;;;;;5090554;23;20800;-84
2021/08/22 09:22:02;;;;;;;4.80;3.30;;;18.10;98.30;;;;;;5097437;23;20427;-84
2021/08/22 09:24:42;;;;;;;5.10;3.33;;;18.20;98.30;;;;;;5090514;23;20403;-84
2021/08/22 09:27:22;;;;;;;3.57;3.17;;;18.30;98.30;;;;;;5098871;23;20434;-84
2021/08/22 09:29:58;;;;;;;3.80;3.47;;;18.40;98.30;;;;;;5097700;23;20454;-83
2021/08/22 09:32:39;;;;;;;4.40;3.50;;;18.40;98.30;;;;;;5096723;23;20450;-84
2021/08/22 09:35:34;;;;;;;4.13;3.33;;;18.50;98.30;;;;;;5097956;23;20999;-85
2021/08/22 09:38:17;;;;;;;3.40;3.10;;;18.40;98.30;;;;;;5089472;23;20482;-85
2021/08/22 09:40:57;;;;;;;3.73;3.37;;;18.50;98.30;;;;;;5090659;23;20481;-84
2021/08/22 09:43:40;;;;;;;3.90;3.53;;;18.40;98.30;;;;;;5098577;23;20494;-83
2021/08/22 09:46:34;;;;;;;3.40;3.10;;;18.30;98.30;;;;;;5065594;23;20419;-84
2021/08/22 09:49:29;;;;;;;10.17;9.13;;;18.30;98.30;;;;;;5015060;23;20429;-84
2021/08/22 09:52:09;;;;;;;6.67;5.07;;;18.40;98.30;;;;;;5004322;23;20516;-85
2021/08/22 09:54:48;;;;;;;3.77;3.10;;;18.40;98.30;;;;;;5072150;23;20458;-85
2021/08/22 09:57:31;;;;;;;3.80;3.40;;;18.40;98.30;;;;;;5098981;23;20426;-85
2021/08/22 10:00:10;;;;;;;3.93;3.57;;;18.30;98.30;;;;;;5098374;23;20449;-84
2021/08/22 10:02:28;;;;;;;3.50;3.10;;;18.20;98.30;;;;;;5090748;23;20407;-83
2021/08/22 10:05:01;;;;;;;3.57;3.23;;;18.20;98.30;;;;;;5098911;23;20741;-83
2021/08/22 10:07:12;;;;;;;3.90;3.00;;;18.30;98.30;;;;;;5090785;23;20518;-83
2021/08/22 10:09:17;;;;;;;13.63;4.00;;;18.30;98.30;;;;;;5090947;23;20479;-84
2021/08/22 10:11:22;;;;;;;3.60;3.30;;;18.40;98.30;;;;;;5098719;23;20680;-84
2021/08/22 10:13:29;;;;;;;4.00;3.53;;;18.50;98.30;;;;;;5090906;23;20530;-81
2021/08/22 10:15:32;;;;;;;4.00;3.60;;;18.50;98.30;;;;;;5092166;23;20435;-83
2021/08/22 10:17:37;;;;;;;3.93;3.30;;;18.20;98.30;;;;;;5091914;23;20434;-83
2021/08/22 10:19:46;;;;;;;4.03;3.67;;;18.20;98.30;;;;;;5091944;23;20447;-83
2021/08/22 10:22:08;;;;;;;5.40;3.73;;;18.10;98.30;;;;;;5091648;23;20429;-83
2021/08/22 10:24:37;;;;;;;4.60;3.80;;;18.20;98.30;;;;;;5091826;23;20414;-83
2021/08/22 10:26:56;;;;;;;4.87;4.00;;;18.20;98.30;;;;;;5091551;23;20807;-83
2021/08/22 10:29:07;;;;;;;4.17;3.77;;;18.20;98.30;;;;;;5091899;23;20451;-84
2021/08/22 10:31:10;;;;;;;3.90;3.50;;;18.30;98.30;;;;;;5091694;23;20456;-83
2021/08/22 10:33:27;;;;;;;4.80;3.20;;;18.30;98.30;;;;;;5091383;23;20435;-83
2021/08/22 10:35:33;;;;;;;5.33;4.03;;;18.20;98.30;;;;;;5092014;23;20499;-83
2021/08/22 10:37:36;;;;;;;4.43;3.40;;;18.00;98.30;;;;;;5092028;23;20934;-83
2021/08/22 10:39:41;;;;;;;4.70;3.40;;;18.00;98.30;;;;;;5100180;23;20447;-82
2021/08/22 10:41:45;;;;;;;4.43;3.47;;;18.00;98.30;;;;;;5099962;23;20461;-84
2021/08/22 10:43:52;;;;;;;3.60;3.30;;;18.10;98.30;;;;;;5091292;23;20465;-83
2021/08/22 10:45:56;;;;;;;4.20;3.77;;;18.20;98.30;;;;;;5091721;23;20439;-83
2021/08/22 10:48:01;;;;;;;4.80;3.57;;;18.20;98.30;;;;;;5099943;23;20423;-84
2021/08/22 10:50:05;;;;;;;4.33;3.70;;;18.20;98.30;;;;;;5091951;23;20447;-83
2021/08/22 11:35:25;;;;;;;9.13;4.00;;;17.90;98.30;;;;;;5122232;23;20432;-81
2021/08/22 11:37:39;;;;;;;6.27;4.03;;;17.90;98.30;;;;;;5130163;23;20437;-81
2021/08/22 11:39:47;;;;;;;7.30;4.00;;;17.90;98.30;;;;;;5130209;23;20425;-81
2021/08/22 11:41:57;;;;;;;5.70;4.80;;;18.00;98.30;;;;;;5130363;23;20445;-81
2021/08/22 11:44:10;;;;;;;4.43;4.00;;;18.00;98.30;;;;;;5120081;23;20444;-82
2021/08/22 11:46:22;;;;;;;6.97;4.33;;;17.90;98.30;;;;;;5105271;23;20487;-80